Flight Track Log - Related Links

Times and Time Zones

All times are in EDT time to prevent confusion due to time zone crossing. See the EJA290 flight status page for this flight to view local times or setup timezone preferences in your user account.

Time Position Orientation Groundspeed Altitude Reporting Facility
EDT Latitude Longitude Course Direction KTS MPH feet Rate Location/Type
Sun 01:53:03 PM 36.7975 -119.7594 158° South 207 238 1,900  Level Oakland Center
Sun 01:54:04 PM 36.7875 -119.8156 257° West 203 234 4,800 2,293 Climbing Oakland Center
Sun 01:55:06 PM 36.7211 -119.8028 171° South 270 311 6,600 2,274 Climbing Oakland Center
Sun 01:56:08 PM 36.6450 -119.8125 186° South 276 318 9,500 2,710 Climbing Oakland Center
Sun 01:57:10 PM 36.5503 -119.8253 186° South 285 328 12,200 2,488 Climbing Oakland Center
Sun 01:58:00 PM 36.1766 -119.4216 158° South  Level FlightAware Approximate
Sun 01:58:11 PM 36.4653 -119.8367 186° South 305 351 14,600  Level Oakland Center
Sun 01:59:13 PM 36.3703 -119.8489 186° South 350 403 15,000 194 Climbing Oakland Center
Sun 02:00:15 PM 36.2622 -119.8622 186° South 389 448 15,000  Level Oakland Center
Sun 02:01:16 PM 36.1472 -119.8767 186° South 411 473 15,000  Level Oakland Center
Sun 02:02:18 PM 36.0303 -119.8917 186° South 419 482 15,000  Level Oakland Center
Sun 02:03:20 PM 35.9161 -119.9106 188° South 413 475 15,000  Level Oakland Center
Sun 02:04:21 PM 35.8000 -119.9261 186° South 415 478 15,000  Level Oakland Center
Sun 02:05:23 PM 35.6619 -119.9442 186° South 414 476 15,000  Level Oakland Center
Sun 02:06:20 PM 35.5706 -119.9575 187° South 414 476 15,000  Level Los Angeles Center
Sun 02:07:22 PM 35.4539 -119.9728 186° South 415 478 15,000  Level Los Angeles Center
Sun 02:08:24 PM 35.3147 -119.9911 186° South 415 478 15,000  Level Los Angeles Center
Sun 02:09:26 PM 35.1994 -120.0067 186° South 414 476 15,000 -44 Level Los Angeles Center
Sun 02:10:40 PM 35.0864 -120.0211 186° South 408 470 14,900 -604 Descending Los Angeles Center
Sun 02:11:55 PM 34.9225 -120.0419 186° South 418 481 13,500 -1,282 Descending Los Angeles Center
Sun 02:12:51 PM 34.8017 -120.0564 186° South 416 479 12,100 -1,394 Descending Los Angeles Center
Sun 02:13:34 PM 34.7350 -120.0675 188° South 343 395 11,200 -1,299 Descending Los Angeles Center
Sun 02:14:28 PM 34.6592 -120.0761 185° South 281 323 10,000 -1,448 Descending Los Angeles Center
Sun 02:15:01 PM 34.6344 -120.0792 186° South 286 329 9,100 -632 Descending Los Angeles Center
Sun 02:16:03 PM 34.5553 -120.0864 184° South 253 291 9,000 -1,016 Descending Los Angeles Center
Sun 02:17:05 PM 34.4803 -120.0892 182° South 254 292 7,000 -1,742 Descending Los Angeles Center
Sun 02:17:36 PM 34.4489 -120.0522 136° Southeast 269 310 6,300 -1,429 Descending Los Angeles Center
Sun 02:18:08 PM 34.4325 -120.0236 125° Southeast 266 306 5,500 -1,970 Descending Los Angeles Center
Sun 02:18:43 PM 34.3958 -119.9781 134° Southeast 262 302 4,100 -1,143 Descending Los Angeles Center
Sun 02:19:32 PM 34.3578 -119.9228 130° Southeast 265 305 3,900 -135 Descending Los Angeles Center
Sun 02:20:12 PM 34.3450 -119.8650 105° East 270 311 3,900 -706 Level Los Angeles Center
Sun 02:21:14 PM 34.3594 -119.7811 78° East 262 302 2,700 -968 Descending Los Angeles Center
Sun 02:22:16 PM 34.3956 -119.7611 25° Northeast 216 249 1,900 -919 Descending Los Angeles Center
Sun 02:23:18 PM 34.4222 -119.7981 311° West 172 198 800 -871 Descending Los Angeles Center
Sun 02:24:20 PM 34.4350 -119.8419 289° West 150 173 100 -677 Descending Los Angeles Center
Sun 02:26:00 PM 34.4262 -119.8415 180° South  Level Estimated

Login

Don't have an account? Register now (free) for customized features, flight alerts, and more!